• Join FlightAware (Why Join?)
  • Login
  • US Flag 
02:42PM EDT


 

Airport Tracker/Info


-or-


 

Live Flight TrackerFlight Track Log ✈ N42HN ✈ 06-Jul-2013 ✈ KAPC - KAMA

Flight Track Log - Related Links

Times and Time Zones

All times are in EDT time to prevent confusion due to time zone crossing. See the N42HN flight status page for this flight to view local times or setup timezone preferences in your user account.

Time Position Orientation Groundspeed Altitude Reporting Facility
EDT Latitude Longitude Course Direction KTS MPH feet Rate Location/Type
04:04PM 38.5334 -121.9373 90° East  Level FlightAware Approximate
04:04PM 38.1978 -122.3228 90° East 186 214 3,000  Level Oakland Center
04:05PM 38.5334 -121.7885 90° East  Level FlightAware Approximate
04:05PM 38.2458 -122.3872 314° West 237 273 6,700  Level Oakland Center
04:06PM 38.5333 -121.6397 90° East  Level FlightAware Approximate
04:06PM 38.2733 -122.3108 65° Northeast 254 292 9,800  Level Oakland Center
04:07PM 38.5333 -121.4910 90° East  Level FlightAware Approximate
04:07PM 38.2806 -122.2122 85° East 268 308 11,800  Level Oakland Center
04:08PM 38.5372 -121.3424 85° East  Level FlightAware Approximate
04:08PM 38.2878 -122.0956 85° East 313 360 14,000  Level Oakland Center
04:09PM 38.5471 -121.1942 85° East  Level FlightAware Approximate
04:09PM 38.2964 -121.9694 85° East 345 397 16,400  Level Oakland Center
04:10PM 38.5500 -121.0455 90° East  Level FlightAware Approximate
04:10PM 38.3064 -121.8414 84° East 359 413 19,000  Level Oakland Center
04:11PM 38.3147 -121.7072 85° East 373 429 21,100 1,980 Climbing Oakland Center
04:12PM 38.3242 -121.5700 85° East 385 443 23,100 1,800 Climbing Oakland Center
04:14PM 38.3303 -121.4214 87° East 399 459 24,800 1,620 Climbing Oakland Center
04:15PM 38.3411 -121.2778 84° East 412 474 26,400 1,440 Climbing Oakland Center
04:16PM 38.3478 -121.1303 87° East 423 487 27,800 1,140 Climbing Oakland Center
04:17PM 38.3586 -120.9800 85° East 429 494 28,800 1,140 Climbing Oakland Center
04:18PM 38.3669 -120.8228 86° East 442 509 30,200 1,440 Climbing Oakland Center
04:19PM 38.3783 -120.6356 86° East 444 511 31,800 1,320 Climbing Oakland Center
04:20PM 38.3869 -120.4806 86° East 443 510 32,900 960 Climbing Oakland Center
04:21PM 38.3961 -120.3222 86° East 445 512 33,800 840 Climbing Oakland Center
04:22PM 38.4033 -120.1611 87° East 452 520 34,700 540 Climbing Oakland Center
04:23PM 38.4144 -119.9986 85° East 457 526 35,000 120 Climbing Oakland Center
04:24PM 38.4194 -119.8339 88° East 464 534 35,000  Level Oakland Center
04:25PM 38.4314 -119.6675 85° East 461 531 35,000 240 Level Oakland Center
04:26PM 38.4394 -119.5042 86° East 462 532 35,500 840 Climbing Oakland Center
04:27PM 38.4447 -119.3411 88° East 459 528 36,800 960 Climbing Oakland Center
04:28PM 38.4522 -119.1839 86° East 446 513 37,500 780 Climbing Oakland Center
04:29PM 38.4583 -119.0228 87° East 453 521 38,400 780 Climbing Oakland Center
04:30PM 38.4644 -118.8661 87° East 447 514 39,200 660 Climbing Oakland Center
04:31PM 38.4722 -118.7103 86° East 443 510 39,800 540 Climbing Oakland Center
04:32PM 38.4647 -118.5247 93° East 439 505 40,400 540 Climbing Oakland Center
04:33PM 38.4617 -118.3686 91° East 442 509 40,900 240 Climbing Oakland Center
04:34PM 38.4531 -118.2119 94° East 444 511 41,000  Climbing Oakland Center
04:35PM 38.4489 -118.0689 92° East 450 518 41,000  Level Oakland Center
04:36PM 38.4422 -117.9081 93° East 452 520 41,000  Level Oakland Center
04:37PM 38.4342 -117.7144 93° East 455 524 41,000  Level Oakland Center
04:38PM 38.4264 -117.5519 93° East 457 526 41,000  Level Oakland Center
04:39PM 38.4203 -117.3883 93° East 459 528 41,000  Level Oakland Center
04:40PM 38.4125 -117.2236 93° East 459 528 41,000  Level Oakland Center
04:41PM 38.4061 -117.0578 93° East 462 532 41,000  Level Oakland Center
04:42PM 38.3986 -116.8939 93° East 460 529 41,000  Level Oakland Center
04:43PM 38.3897 -116.7306 94° East 458 527 41,000  Level Oakland Center
04:44PM 38.3806 -116.5664 94° East 461 531 41,000  Level Oakland Center
04:45PM 38.3739 -116.4028 93° East 461 531 41,000  Level Oakland Center
04:46PM 38.3667 -116.2383 93° East 462 532 41,000  Level Oakland Center
04:47PM 38.3586 -116.0750 94° East 462 532 41,000  Level Oakland Center
04:49PM 38.3428 -115.8456 95° East 462 532 41,000  Level Salt Lake Center
04:50PM 38.3342 -115.6822 94° East 462 532 41,000  Level Salt Lake Center
04:51PM 38.3247 -115.5197 94° East 462 532 41,000  Level Salt Lake Center
04:52PM 38.3122 -115.3258 95° East 457 526 41,000  Level Salt Lake Center
04:53PM 38.3039 -115.1836 94° East 458 527 41,000  Level Salt Lake Center
04:54PM 38.2906 -115.0231 96° East 457 526 41,000  Level Salt Lake Center
04:55PM 38.2850 -114.8608 92° East 459 528 41,000  Level Salt Lake Center
04:56PM 38.2669 -114.6689 97° East 455 524 41,000  Level Salt Lake Center
04:57PM 38.2572 -114.5067 94° East 459 528 41,000  Level Salt Lake Center
04:58PM 38.2214 -114.3558 107° East 449 517 41,000  Level Salt Lake Center
04:59PM 38.1994 -114.1975 100° East 452 520 41,000  Level Salt Lake Center
05:00PM 38.1686 -114.0431 104° East 451 519 41,000  Level Salt Lake Center
05:01PM 38.1431 -113.8867 102° East 453 521 41,000  Level Salt Lake Center
05:02PM 38.1133 -113.7333 104° East 448 516 41,000  Level Salt Lake Center
05:03PM 38.0850 -113.5756 103° East 456 525 41,000  Level Salt Lake Center
05:04PM 38.0497 -113.3878 103° East 456 525 41,000  Level Salt Lake Center
05:05PM 38.0219 -113.2294 103° East 457 526 41,000  Level Salt Lake Center
05:06PM 37.9925 -113.0708 103° East 459 528 41,000  Level Salt Lake Center
05:07PM 37.9636 -112.9117 103° East 460 529 41,000  Level Salt Lake Center
05:08PM 37.9328 -112.7525 104° East 461 531 41,000  Level Salt Lake Center
05:09PM 37.9036 -112.5931 103° East 461 531 41,000  Level Salt Lake Center
05:10PM 37.8711 -112.4350 105° East 461 531 41,000  Level Salt Lake Center
05:11PM 37.8422 -112.2761 103° East 461 531 41,000  Level Salt Lake Center
05:12PM 37.8097 -112.1197 105° East 460 529 41,000  Level Salt Lake Center
05:13PM 37.7808 -111.9617 103° East 461 531 41,000  Level Salt Lake Center
05:14PM 37.7475 -111.8067 105° East 459 528 41,000  Level Salt Lake Center
05:15PM 37.7114 -111.6175 104° East 461 531 41,000  Level Salt Lake Center
05:16PM 37.6786 -111.4600 105° East 463 533 41,000  Level Salt Lake Center
05:17PM 37.6583 -111.3631 105° East 468 539 41,000  Level Denver Center
05:18PM 37.6256 -111.2042 105° East 468 539 41,000  Level Denver Center
05:19PM 37.5936 -111.0464 104° East 465 535 41,000  Level Denver Center
05:20PM 37.5619 -110.8900 104° East 462 532 41,000  Level Denver Center
05:21PM 37.5281 -110.7331 105° East 463 533 41,000  Level Denver Center
05:22PM 37.4944 -110.5764 105° East 464 534 41,000  Level Denver Center
05:23PM 37.4628 -110.4197 104° East 463 533 41,000  Level Denver Center
05:24PM 37.4286 -110.2633 105° East 463 533 41,000  Level Denver Center
05:25PM 37.3878 -110.0714 105° East 468 539 41,000  Level Denver Center
05:26PM 37.3497 -109.8947 105° East 468 539 41,000  Level Denver Center
05:27PM 37.3106 -109.7206 106° East 465 535 41,000  Level Denver Center
05:28PM 37.2781 -109.5694 105° East 467 537 41,000  Level Denver Center
05:29PM 37.2444 -109.4186 106° East 468 539 41,000  Level Denver Center
05:30PM 37.2067 -109.2453 105° East 463 533 41,000  Level Denver Center
05:31PM 37.1722 -109.0958 106° East 464 534 41,000  Level Denver Center
05:32PM 37.1342 -108.9219 105° East 463 533 41,000  Level Denver Center
05:33PM 37.0994 -108.7769 107° East 455 524 41,000  Level Denver Center
05:34PM 37.0733 -108.6517 105° East 461 531 41,000  Level Denver Center
05:35PM 37.0261 -108.4569 107° East 457 526 41,000  Level Denver Center
05:37PM 36.9933 -108.3103 106° East 457 526 41,000  Level Denver Center
05:38PM 36.9528 -108.1408 107° East 454 522 41,000  Level Denver Center
05:39PM 36.9239 -108.0169 106° East 460 529 41,000  Level Denver Center
05:40PM 36.8828 -107.8467 107° East 458 527 41,000  Level Denver Center
05:41PM 36.8428 -107.6747 106° East 460 529 41,000  Level Denver Center
05:42PM 36.8069 -107.5267 107° East 463 533 41,000  Level Denver Center
05:43PM 36.7656 -107.3558 107° East 461 531 41,000  Level Denver Center
05:44PM 36.7300 -107.2069 107° East 467 537 41,000  Level Denver Center
05:46PM 36.6578 -106.9128 107° East 464 534 41,000  Level Albuquerque Center
05:47PM 36.6214 -106.7661 107° East 464 534 41,000  Level Albuquerque Center
05:48PM 36.5797 -106.5956 107° East 461 531 41,000  Level Albuquerque Center
05:49PM 36.5411 -106.4486 108° East 464 534 41,000  Level Albuquerque Center
05:50PM 36.5011 -106.2789 106° East 461 531 41,000  Level Albuquerque Center
05:51PM 36.4633 -106.1342 108° East 460 529 41,000  Level Albuquerque Center
05:52PM 36.4292 -106.0014 108° East 459 528 41,000  Level Albuquerque Center
05:53PM 36.3819 -105.8169 108° East 465 535 41,000  Level Albuquerque Center
05:54PM 36.3428 -105.6658 108° East 462 532 41,000  Level Albuquerque Center
05:55PM 36.3061 -105.5258 108° East 455 524 41,000  Level Albuquerque Center
05:56PM 36.2689 -105.3794 107° East 445 512 41,000  Level Albuquerque Center
05:57PM 36.2292 -105.2364 109° East 438 504 41,000  Level Albuquerque Center
05:58PM 36.1908 -105.0878 108° East 443 510 41,000  Level Albuquerque Center
05:59PM 36.1456 -104.9156 108° East 446 513 41,000 -240 Level Albuquerque Center
06:00PM 36.1061 -104.7661 108° East 450 518 40,600 -480 Descending Albuquerque Center
06:01PM 36.0667 -104.6197 108° East 447 514 40,100 -300 Descending Albuquerque Center
06:02PM 36.0258 -104.4767 109° East 441 507 40,000 -60 Descending Albuquerque Center
06:03PM 35.9872 -104.3267 108° East 449 517 40,000  Level Albuquerque Center
06:04PM 35.9453 -104.1750 109° East 459 528 40,000  Level Albuquerque Center
06:05PM 35.9042 -104.0219 108° East 462 532 40,000 -720 Level Albuquerque Center
06:06PM 35.8600 -103.8708 110° East 462 532 38,600 -2,160 Descending Albuquerque Center
06:07PM 35.8183 -103.7175 108° East 465 535 35,600 -2,940 Descending Albuquerque Center
06:08PM 35.7750 -103.5667 109° East 463 533 32,600 -3,420 Descending Albuquerque Center
06:09PM 35.7319 -103.4092 109° East 473 544 28,700 -3,420 Descending Albuquerque Center
06:10PM 35.6881 -103.2564 109° East 470 541 25,700 -3,000 Descending Albuquerque Center
06:11PM 35.6467 -103.1103 109° East 455 524 22,600 -2,760 Descending Albuquerque Center
06:12PM 35.6053 -102.9642 109° East 449 517 20,100 -2,160 Descending Albuquerque Center
06:13PM 35.5636 -102.8186 109° East 448 516 18,300 -1,800 Descending Albuquerque Center
06:14PM 35.5219 -102.6819 111° Southeast 429 494 16,500 -2,100 Descending Albuquerque Center
06:15PM 35.4831 -102.5453 109° East 426 490 14,000 -2,100 Descending Albuquerque Center
06:16PM 35.4392 -102.3947 110° East 390 449 12,300 -1,740 Descending Albuquerque Center
06:17PM 35.4100 -102.2925 109° East 329 379 10,500 -1,800 Descending Albuquerque Center
06:18PM 35.4053 -102.1911 93° East 303 349 8,700 -1,740 Descending Albuquerque Center
06:19PM 35.4056 -102.0933 90° East 289 333 7,000 -1,200 Descending Albuquerque Center
06:20PM 35.4042 -101.9939 91° East 292 336 6,300 -540 Descending Albuquerque Center
06:21PM 35.4047 -101.9014 90° East 283 326 6,000 -180 Descending Albuquerque Center
06:22PM 35.4050 -101.8111 90° East 273 314 6,000  Level Albuquerque Center
06:23PM 35.4072 -101.7339 88° East 246 283 6,000  Level Albuquerque Center
06:24PM 35.3831 -101.6792 118° Southeast 220 253 6,000 -240 Level Albuquerque Center
06:25PM 35.3269 -101.6656 169° South 211 243 5,600 -540 Descending Albuquerque Center
06:27PM 35.2753 -101.6619 177° South 193 222 5,000 -840 Descending Albuquerque Center
06:28PM 35.2372 -101.6919 213° Southwest 158 182 3,900 -660 Descending Albuquerque Center
06:29PM 35.2131 -101.7239 227° Southwest 153 176 3,700 -240 Descending Albuquerque Center